Time;durP1;ratioP1;P1;durP2;ratioP2;P2;SDS_P1;SDS_P2;PMS_P1;PMS_P2;Temp;Humidity;BMP_temperature;BMP_pressure;BME280_temperature;BME280_humidity;BME280_pressure;Samples;Min_cycle;Max_cycle;Signal;HPM_P1;HPM_P2
2021/09/06 00:00:43;;;;;;;10.55;6.60;;;;;;;11.86;87.39;93628.97;5048565;28;20060;-76
2021/09/06 00:03:10;;;;;;;8.50;5.95;;;;;;;11.86;87.72;93622.00;5038639;28;20042;-76
2021/09/06 00:05:38;;;;;;;9.27;6.75;;;;;;;11.82;87.68;93638.09;5028272;28;20053;-76
2021/09/06 00:08:05;;;;;;;10.90;6.55;;;;;;;11.71;88.12;93631.81;5028780;28;20532;-76
2021/09/06 00:10:39;;;;;;;9.68;6.07;;;;;;;11.76;87.69;93637.13;5028327;28;20495;-76
2021/09/06 00:13:07;;;;;;;14.20;6.65;;;;;;;11.76;87.91;93639.72;5028851;28;20125;-76
2021/09/06 00:15:34;;;;;;;9.20;6.25;;;;;;;11.72;88.37;93629.00;5028722;28;20046;-76
2021/09/06 00:18:02;;;;;;;8.55;5.85;;;;;;;11.67;88.50;93638.34;5028825;28;20053;-76
2021/09/06 00:20:29;;;;;;;10.25;6.15;;;;;;;11.61;89.19;93642.53;5029183;28;20053;-76
2021/09/06 00:22:58;;;;;;;10.88;6.00;;;;;;;10.99;92.49;93612.88;5028565;28;20052;-76
2021/09/06 00:25:24;;;;;;;11.10;7.25;;;;;;;11.06;93.88;93647.06;5028458;28;20095;-76
2021/09/06 00:27:52;;;;;;;9.00;6.75;;;;;;;11.00;93.51;93639.38;5028834;28;20053;-76
2021/09/06 00:30:20;;;;;;;11.27;6.70;;;;;;;11.16;92.45;93641.50;5028420;28;20053;-76
2021/09/06 00:32:47;;;;;;;11.13;6.63;;;;;;;11.25;91.94;93642.06;5032681;28;20049;-76
2021/09/06 00:35:13;;;;;;;8.25;6.40;;;;;;;11.31;91.00;93649.00;5032339;28;20049;-76
2021/09/06 00:37:40;;;;;;;9.25;6.07;;;;;;;11.36;90.52;93648.38;5032112;28;20498;-76
2021/09/06 00:40:10;;;;;;;9.93;6.28;;;;;;;11.34;90.31;93652.94;5032310;28;20483;-76
2021/09/06 00:42:37;;;;;;;9.93;7.07;;;;;;;11.32;90.14;93653.13;5032451;28;20091;-76
2021/09/06 00:45:05;;;;;;;11.57;6.07;;;;;;;11.33;89.83;93654.72;5032286;28;20103;-76
2021/09/06 00:47:33;;;;;;;9.45;7.15;;;;;;;11.31;89.76;93658.47;5032470;28;20064;-76
2021/09/06 00:50:02;;;;;;;9.23;5.90;;;;;;;11.08;91.11;93652.78;5031905;28;20096;-76
2021/09/06 00:52:29;;;;;;;10.23;7.10;;;;;;;11.05;91.80;93667.81;5031978;28;20088;-76
2021/09/06 00:54:56;;;;;;;11.40;7.07;;;;;;;11.00;92.06;93670.22;5032232;28;20056;-76
2021/09/06 00:57:25;;;;;;;11.10;6.97;;;;;;;11.00;92.15;93671.00;5031885;28;20049;-76
2021/09/06 00:59:51;;;;;;;9.20;6.68;;;;;;;11.01;91.81;93667.44;5031831;28;20054;-76
2021/09/06 01:02:18;;;;;;;12.63;7.28;;;;;;;10.79;91.44;93620.66;5031924;28;20053;-76
2021/09/06 01:04:45;;;;;;;9.52;7.07;;;;;;;11.06;90.75;93662.50;5032072;28;20053;-76
2021/09/06 01:07:12;;;;;;;10.05;7.25;;;;;;;11.11;90.65;93672.16;5031762;28;20050;-76
2021/09/06 01:09:40;;;;;;;10.35;6.45;;;;;;;11.08;90.60;93670.78;5032004;28;20814;-76
2021/09/06 01:12:08;;;;;;;9.90;6.45;;;;;;;11.04;90.61;93666.25;5031673;28;20096;-76
2021/09/06 01:14:36;;;;;;;8.85;6.50;;;;;;;10.95;90.79;93675.97;5031684;28;20506;-76
2021/09/06 01:17:03;;;;;;;9.70;6.22;;;;;;;10.92;90.87;93673.81;5031818;28;20103;-76
2021/09/06 01:19:30;;;;;;;10.40;6.55;;;;;;;10.80;91.13;93653.06;5031784;28;20045;-76
2021/09/06 01:21:57;;;;;;;9.45;6.55;;;;;;;10.85;91.72;93673.00;5031532;28;20494;-76
2021/09/06 01:24:24;;;;;;;8.60;6.60;;;;;;;10.79;91.66;93672.81;5031983;28;20049;-76
2021/09/06 01:26:52;;;;;;;9.13;6.82;;;;;;;10.74;91.52;93652.06;5031324;28;20060;-76
2021/09/06 01:29:19;;;;;;;10.68;6.53;;;;;;;10.79;92.13;93672.03;5031423;28;20053;-76
2021/09/06 01:31:46;;;;;;;12.05;7.47;;;;;;;10.38;96.21;93678.91;5031646;28;20045;-76
2021/09/06 01:34:13;;;;;;;11.13;7.00;;;;;;;10.50;94.21;93672.22;5031289;28;20050;-76
2021/09/06 01:36:40;;;;;;;10.50;7.13;;;;;;;10.49;94.55;93662.94;5031423;28;20100;-75
2021/09/06 01:39:07;;;;;;;11.77;7.50;;;;;;;10.53;94.09;93668.47;5031252;28;20488;-75
2021/09/06 01:41:34;;;;;;;10.43;7.18;;;;;;;10.55;93.65;93671.63;5031076;28;20091;-76
2021/09/06 01:44:03;;;;;;;10.60;7.20;;;;;;;10.48;94.23;93665.72;5030955;28;20108;-76
2021/09/06 01:46:30;;;;;;;10.65;7.10;;;;;;;10.44;94.14;93675.59;5030982;28;20053;-76
2021/09/06 01:48:57;;;;;;;12.93;7.75;;;;;;;10.47;93.75;93666.69;5030984;28;20045;-76
2021/09/06 01:51:24;;;;;;;10.55;6.78;;;;;;;10.52;93.47;93674.59;5031070;28;20528;-76
2021/09/06 01:53:51;;;;;;;12.68;7.30;;;;;;;10.52;93.47;93682.31;5031071;28;20053;-76
2021/09/06 01:56:19;;;;;;;11.70;7.55;;;;;;;10.54;93.17;93682.91;5031203;28;20111;-76
2021/09/06 01:58:46;;;;;;;9.20;7.03;;;;;;;10.60;92.92;93678.75;5031194;28;20461;-76
2021/09/06 02:01:14;;;;;;;11.27;6.95;;;;;;;10.60;92.51;93679.53;5031108;28;20414;-76
2021/09/06 02:03:41;;;;;;;9.60;6.13;;;;;;;10.63;92.50;93676.59;5030841;28;20045;-76
2021/09/06 02:06:08;;;;;;;9.73;6.82;;;;;;;10.52;92.88;93661.75;5030960;28;20731;-76
2021/09/06 02:08:35;;;;;;;11.88;7.38;;;;;;;10.59;91.89;93666.91;5030664;28;20498;-76
2021/09/06 02:11:02;;;;;;;8.60;6.82;;;;;;;10.67;92.16;93679.53;5030680;28;20053;-76
2021/09/06 02:13:29;;;;;;;12.27;7.72;;;;;;;10.61;92.31;93678.56;5030770;28;20056;-76
2021/09/06 02:15:56;;;;;;;12.13;7.10;;;;;;;10.59;91.38;93666.91;5030495;28;20669;-76
2021/09/06 02:18:24;;;;;;;13.88;7.97;;;;;;;10.64;91.70;93685.88;5030174;28;20091;-76
2021/09/06 02:20:51;;;;;;;12.30;7.95;;;;;;;10.57;92.38;93674.81;5030706;28;20045;-76
2021/09/06 02:23:18;;;;;;;10.48;7.93;;;;;;;10.57;92.53;93677.38;5030288;28;20050;-76
2021/09/06 02:25:45;;;;;;;10.45;7.65;;;;;;;10.28;93.06;93648.50;5030531;28;20061;-76
2021/09/06 02:28:11;;;;;;;13.20;8.07;;;;;;;10.48;93.18;93679.34;5019581;28;20049;-76
2021/09/06 02:30:38;;;;;;;12.10;7.80;;;;;;;10.51;92.74;93681.50;5030217;28;20386;-76
2021/09/06 02:33:05;;;;;;;11.80;7.72;;;;;;;10.51;92.41;93683.31;5030391;28;20060;-76
2021/09/06 02:35:33;;;;;;;12.02;7.43;;;;;;;10.50;92.88;93679.94;5030411;28;20060;-76
2021/09/06 02:38:00;;;;;;;11.68;7.80;;;;;;;10.47;92.73;93674.41;5030181;28;20099;-76
2021/09/06 02:40:27;;;;;;;11.82;7.05;;;;;;;10.35;93.03;93684.44;5029929;28;20041;-76
2021/09/06 02:42:54;;;;;;;12.00;7.03;;;;;;;10.14;94.03;93686.97;5030284;28;20050;-76
2021/09/06 02:45:21;;;;;;;13.15;7.63;;;;;;;10.22;93.74;93698.84;5029599;28;20404;-76
2021/09/06 02:47:49;;;;;;;10.88;7.75;;;;;;;10.12;96.20;93698.41;5030170;28;20055;-76
2021/09/06 02:50:16;;;;;;;11.48;7.22;;;;;;;10.14;94.83;93688.78;5030138;28;20045;-76
2021/09/06 02:52:44;;;;;;;11.88;7.97;;;;;;;10.18;94.15;93694.31;5029463;28;20053;-76
2021/09/06 02:55:12;;;;;;;13.73;7.50;;;;;;;10.26;93.21;93696.66;5029309;28;20053;-76
2021/09/06 02:57:38;;;;;;;14.15;7.80;;;;;;;10.20;93.27;93705.16;5029843;28;20049;-76
2021/09/06 03:00:07;;;;;;;10.35;7.13;;;;;;;10.06;93.97;93700.00;5029724;28;20056;-76
2021/09/06 03:02:33;;;;;;;11.05;7.75;;;;;;;10.01;94.07;93697.22;5029889;28;20052;-76
2021/09/06 03:05:00;;;;;;;13.00;8.00;;;;;;;9.89;94.75;93691.84;5029730;28;20119;-76
2021/09/06 03:07:27;;;;;;;13.70;8.73;;;;;;;9.72;96.58;93705.00;5029790;28;20056;-76
2021/09/06 03:09:55;;;;;;;10.15;7.20;;;;;;;9.57;97.90;93714.63;5029855;28;20103;-76
2021/09/06 03:12:22;;;;;;;13.30;8.10;;;;;;;9.69;97.61;93704.63;5029317;28;20053;-76
2021/09/06 03:14:49;;;;;;;12.23;8.02;;;;;;;9.69;97.50;93686.66;5029403;28;20045;-76
2021/09/06 03:17:16;;;;;;;13.07;7.70;;;;;;;9.39;98.06;93672.31;5029992;28;20053;-76
2021/09/06 03:19:43;;;;;;;13.05;8.60;;;;;;;9.06;100.00;93688.31;5029559;28;20050;-76
2021/09/06 03:22:10;;;;;;;12.15;8.85;;;;;;;9.12;100.00;93708.06;5029471;28;20063;-76
2021/09/06 03:24:37;;;;;;;10.02;7.95;;;;;;;9.23;100.00;93710.09;5027392;28;20076;-75
2021/09/06 03:27:05;;;;;;;11.27;7.82;;;;;;;9.35;100.00;93704.44;5029383;28;20414;-76
2021/09/06 03:29:32;;;;;;;10.43;7.60;;;;;;;9.47;100.00;93712.41;5029541;28;20107;-76
2021/09/06 03:31:59;;;;;;;11.98;7.90;;;;;;;9.47;100.00;93697.81;5029113;28;20101;-76
2021/09/06 03:34:26;;;;;;;10.40;8.20;;;;;;;9.61;100.00;93713.25;5029213;28;20042;-75
2021/09/06 03:36:52;;;;;;;12.90;8.30;;;;;;;9.76;98.72;93715.69;5029230;28;20049;-76
2021/09/06 03:39:19;;;;;;;13.63;8.52;;;;;;;9.82;98.25;93711.56;5029252;28;20403;-76
2021/09/06 03:41:46;;;;;;;13.77;9.15;;;;;;;9.29;100.00;93707.78;5029477;28;20091;-76
2021/09/06 03:44:14;;;;;;;10.30;8.60;;;;;;;8.77;100.00;93716.53;5029087;28;20494;-76
2021/09/06 03:46:41;;;;;;;13.30;8.63;;;;;;;8.95;100.00;93728.84;5028863;28;20127;-75
2021/09/06 03:49:08;;;;;;;12.20;8.55;;;;;;;9.13;100.00;93722.50;5029125;28;20041;-76
2021/09/06 03:51:35;;;;;;;12.15;8.25;;;;;;;9.22;100.00;93720.56;5029313;28;20053;-76
2021/09/06 03:54:02;;;;;;;14.90;8.88;;;;;;;9.09;100.00;93721.28;5028892;28;20128;-76
2021/09/06 03:56:28;;;;;;;13.30;8.27;;;;;;;9.28;100.00;93724.94;5029271;28;20054;-75
2021/09/06 03:58:55;;;;;;;13.95;8.07;;;;;;;9.40;100.00;93727.75;5028985;28;20491;-75
2021/09/06 04:01:23;;;;;;;11.88;8.40;;;;;;;9.48;100.00;93732.75;5029109;28;20057;-76
2021/09/06 04:03:50;;;;;;;12.95;7.93;;;;;;;9.60;100.00;93729.63;5029189;28;20056;-75
2021/09/06 04:06:17;;;;;;;12.52;8.52;;;;;;;9.60;100.00;93734.75;5032192;28;20049;-76
2021/09/06 04:08:44;;;;;;;13.45;8.13;;;;;;;9.67;100.00;93737.38;5033148;28;20053;-75
2021/09/06 04:11:11;;;;;;;11.98;8.27;;;;;;;9.75;99.07;93747.47;5033139;28;20045;-75
2021/09/06 04:13:37;;;;;;;12.10;8.32;;;;;;;9.79;98.54;93742.72;5033081;28;20419;-75
2021/09/06 04:16:04;;;;;;;14.20;8.50;;;;;;;9.67;98.75;93735.59;5032718;28;20103;-76
2021/09/06 04:18:34;;;;;;;12.85;8.80;;;;;;;9.73;98.17;93757.91;5032691;28;20518;-75
2021/09/06 04:21:01;;;;;;;18.00;8.85;;;;;;;9.78;98.10;93759.13;5032687;28;20056;-75
2021/09/06 04:23:28;;;;;;;17.98;8.55;;;;;;;9.80;98.08;93757.94;5032960;28;20060;-76
2021/09/06 04:25:55;;;;;;;19.38;9.90;;;;;;;9.87;97.29;93763.09;5032477;28;20053;-76
2021/09/06 04:28:22;;;;;;;18.95;9.45;;;;;;;9.85;96.86;93765.06;5032643;28;20045;-75
2021/09/06 04:30:48;;;;;;;16.83;8.75;;;;;;;9.85;97.50;93762.50;5032511;28;20498;-76
2021/09/06 04:33:15;;;;;;;17.75;10.10;;;;;;;9.93;97.41;93769.22;5032619;28;20096;-76
2021/09/06 04:35:43;;;;;;;20.63;8.60;;;;;;;9.97;97.14;93765.31;5032205;28;20503;-76
2021/09/06 04:38:10;;;;;;;14.88;8.15;;;;;;;10.01;96.50;93766.53;5032542;28;20522;-76
2021/09/06 04:40:37;;;;;;;11.65;8.38;;;;;;;9.98;96.88;93757.44;5032755;28;20045;-76
2021/09/06 04:43:04;;;;;;;15.48;8.60;;;;;;;9.95;97.21;93752.66;5032556;28;20140;-76
2021/09/06 04:45:30;;;;;;;16.58;9.80;;;;;;;9.97;97.77;93763.56;5032423;28;20046;-76
2021/09/06 04:47:57;;;;;;;15.02;9.57;;;;;;;9.95;98.43;93762.16;5032019;28;20511;-76
2021/09/06 04:50:25;;;;;;;14.70;9.43;;;;;;;9.95;98.61;93772.41;5032050;28;20885;-76
2021/09/06 04:52:55;;;;;;;17.08;9.20;;;;;;;9.99;97.61;93771.03;5032138;28;20051;-76
2021/09/06 04:55:22;;;;;;;13.40;8.15;;;;;;;10.06;97.75;93777.00;5031817;28;20077;-76
2021/09/06 04:57:49;;;;;;;13.43;8.65;;;;;;;10.12;97.92;93780.56;5031942;28;20049;-76
2021/09/06 05:00:16;;;;;;;14.43;8.13;;;;;;;10.13;99.26;93782.13;5031930;28;20554;-76
2021/09/06 05:02:42;;;;;;;15.55;9.55;;;;;;;10.04;100.00;93784.09;5031869;28;20046;-76
2021/09/06 05:05:10;;;;;;;14.98;9.32;;;;;;;9.51;100.00;93784.63;5031869;28;20049;-76
2021/09/06 05:07:37;;;;;;;11.10;8.98;;;;;;;9.60;100.00;93788.63;5031701;28;20100;-76
2021/09/06 05:10:06;;;;;;;17.02;9.00;;;;;;;9.43;100.00;93770.97;5032274;28;20053;-76
2021/09/06 05:12:33;;;;;;;13.98;9.70;;;;;;;9.53;100.00;93793.72;5031954;28;20056;-75
2021/09/06 05:15:00;;;;;;;13.32;9.50;;;;;;;9.63;100.00;93785.69;5031480;28;20045;-75
2021/09/06 05:17:27;;;;;;;13.27;9.60;;;;;;;9.71;100.00;93777.84;5030934;28;20050;-75
2021/09/06 05:19:53;;;;;;;14.52;9.30;;;;;;;9.86;100.00;93787.19;5031525;28;20049;-74
2021/09/06 05:22:20;;;;;;;13.82;9.38;;;;;;;9.94;100.00;93788.78;5031711;28;20045;-74
2021/09/06 05:24:47;;;;;;;15.38;10.15;;;;;;;10.01;100.00;93784.47;5032081;28;20049;-75
2021/09/06 05:27:15;;;;;;;15.07;9.73;;;;;;;10.23;100.00;93789.50;5031434;28;20091;-75
2021/09/06 05:29:42;;;;;;;23.30;10.77;;;;;;;10.36;100.00;93784.41;5031475;28;20050;-74
2021/09/06 05:32:09;;;;;;;20.70;11.30;;;;;;;10.51;100.00;93773.19;5031616;28;20049;-75
2021/09/06 05:34:36;;;;;;;20.80;11.10;;;;;;;10.83;100.00;93791.41;5031261;28;20049;-75
2021/09/06 05:37:03;;;;;;;20.55;10.55;;;;;;;10.92;98.23;93779.19;5031344;28;20045;-75
2021/09/06 05:39:29;;;;;;;21.85;10.45;;;;;;;11.30;95.92;93788.06;5031094;28;20495;-75
2021/09/06 05:41:56;;;;;;;17.48;10.65;;;;;;;11.43;96.02;93777.75;5031381;28;20045;-74
2021/09/06 05:44:25;;;;;;;16.90;9.80;;;;;;;11.74;95.21;93791.75;5031315;28;20045;-75
2021/09/06 05:46:51;;;;;;;17.63;10.70;;;;;;;11.93;94.34;93798.84;5031080;28;20111;-75
2021/09/06 05:49:20;;;;;;;16.70;10.48;;;;;;;12.07;93.15;93789.31;5031285;28;20068;-75
2021/09/06 05:51:47;;;;;;;18.35;11.95;;;;;;;12.20;92.45;93778.94;5031365;28;20077;-75
2021/09/06 05:54:13;;;;;;;26.98;12.48;;;;;;;12.48;90.99;93793.25;5030971;28;20053;-75
2021/09/06 05:56:40;;;;;;;26.42;14.60;;;;;;;12.66;90.31;93795.16;5030748;28;20099;-75
2021/09/06 05:59:07;;;;;;;26.83;14.68;;;;;;;12.89;89.54;93796.41;5041799;28;20057;-75
2021/09/06 06:01:35;;;;;;;27.60;15.88;;;;;;;13.10;91.20;93794.44;5049372;28;20072;-75
2021/09/06 06:04:02;;;;;;;33.90;16.40;;;;;;;13.33;87.51;93793.88;5050800;28;20052;-75
2021/09/06 06:06:29;;;;;;;27.75;15.68;;;;;;;13.49;88.04;93781.44;5050972;28;20293;-75
2021/09/06 06:08:56;;;;;;;27.88;14.57;;;;;;;13.75;86.57;93795.09;5050922;28;20103;-75
2021/09/06 06:11:23;;;;;;;23.80;13.85;;;;;;;13.95;84.62;93786.34;5050270;28;20516;-75
2021/09/06 06:13:50;;;;;;;24.75;13.52;;;;;;;14.28;83.00;93793.72;5050851;28;20049;-75
2021/09/06 06:16:16;;;;;;;24.80;12.52;;;;;;;14.52;83.19;93800.75;5050781;28;20049;-75
2021/09/06 06:18:44;;;;;;;21.17;12.27;;;;;;;14.77;83.08;93797.28;5050477;28;20098;-75
2021/09/06 06:21:11;;;;;;;23.63;11.55;;;;;;;15.05;81.67;93798.47;5050712;28;20046;-75
2021/09/06 06:23:38;;;;;;;20.13;11.68;;;;;;;15.32;82.76;93805.81;5050244;28;20432;-75
2021/09/06 06:26:05;;;;;;;25.38;12.40;;;;;;;15.59;80.91;93807.94;5050271;28;20052;-75
2021/09/06 06:28:32;;;;;;;17.27;10.18;;;;;;;15.76;81.91;93800.28;5049022;28;20045;-75
2021/09/06 06:30:59;;;;;;;26.00;10.85;;;;;;;16.07;81.31;93802.75;5050177;28;20842;-76
2021/09/06 06:33:29;;;;;;;17.35;11.75;;;;;;;16.38;78.91;93806.72;5050212;28;20138;-76
2021/09/06 06:35:58;;;;;;;19.60;10.73;;;;;;;16.64;78.81;93790.81;5050329;28;20076;-76
2021/09/06 06:38:25;;;;;;;18.63;10.98;;;;;;;16.93;77.33;93795.97;5049822;28;20052;-76
2021/09/06 06:40:53;;;;;;;17.33;11.10;;;;;;;17.06;77.68;93805.28;5050216;28;20100;-75
2021/09/06 06:43:20;;;;;;;17.02;10.75;;;;;;;17.03;77.95;93790.22;5049699;28;20049;-75
2021/09/06 06:45:47;;;;;;;26.90;14.18;;;;;;;16.63;78.23;93795.25;5050083;28;20059;-76
2021/09/06 06:48:13;;;;;;;21.27;12.43;;;;;;;16.53;80.01;93793.22;5050008;28;20057;-75
2021/09/06 06:50:40;;;;;;;21.25;12.52;;;;;;;16.94;78.73;93793.16;5049612;28;20052;-76
2021/09/06 06:53:09;;;;;;;21.92;12.45;;;;;;;17.34;76.69;93801.06;5049759;28;20490;-76
2021/09/06 06:55:36;;;;;;;14.95;10.45;;;;;;;17.07;78.71;93802.47;5049551;28;20094;-75
2021/09/06 06:58:03;;;;;;;19.52;10.80;;;;;;;17.38;77.83;93804.75;5049825;28;20045;-75
2021/09/06 07:00:30;;;;;;;17.33;10.52;;;;;;;17.19;78.18;93802.41;5049657;28;20045;-75
2021/09/06 07:02:57;;;;;;;17.17;11.45;;;;;;;17.55;77.57;93796.16;5049554;28;20056;-75
2021/09/06 07:05:24;;;;;;;16.20;10.40;;;;;;;17.16;79.30;93807.25;5049640;28;20052;-75
2021/09/06 07:07:51;;;;;;;21.00;11.40;;;;;;;17.48;79.01;93811.91;5049729;28;20057;-76
2021/09/06 07:10:19;;;;;;;16.05;10.65;;;;;;;17.85;77.57;93808.78;5049493;28;20049;-76
2021/09/06 07:12:46;;;;;;;15.75;10.73;;;;;;;18.25;75.88;93811.38;5049372;28;20049;-75
2021/09/06 07:15:13;;;;;;;19.83;9.93;;;;;;;18.08;74.78;93801.81;5049767;28;20044;-75
2021/09/06 07:17:40;;;;;;;13.93;9.55;;;;;;;18.21;76.46;93800.66;5049421;28;20086;-76
2021/09/06 07:20:08;;;;;;;16.20;10.43;;;;;;;18.50;76.58;93810.06;5049574;28;20183;-75
2021/09/06 07:22:35;;;;;;;16.60;9.90;;;;;;;18.17;75.90;93807.38;5049592;28;20509;-75
2021/09/06 07:25:03;;;;;;;17.05;9.43;;;;;;;18.03;76.90;93814.72;5068961;28;20044;-76
2021/09/06 07:27:31;;;;;;;13.35;9.23;;;;;;;18.22;76.98;93817.03;5069150;28;20094;-76
2021/09/06 07:29:58;;;;;;;15.57;8.82;;;;;;;18.57;74.28;93813.28;5069110;28;20056;-76
2021/09/06 07:32:25;;;;;;;15.57;9.07;;;;;;;18.64;74.35;93820.88;5069484;28;20075;-75
2021/09/06 07:34:51;;;;;;;14.65;8.20;;;;;;;18.83;73.90;93809.09;5069345;28;20052;-75
2021/09/06 07:37:18;;;;;;;13.27;8.50;;;;;;;19.25;73.46;93816.50;5069046;28;20056;-75
2021/09/06 07:39:47;;;;;;;13.52;7.03;;;;;;;19.65;70.52;93823.03;5068632;28;20048;-76
2021/09/06 07:42:14;;;;;;;12.13;7.43;;;;;;;19.73;70.26;93817.34;5068401;28;20110;-76
2021/09/06 07:44:42;;;;;;;13.75;6.93;;;;;;;20.18;69.43;93811.09;5066029;28;20122;-76
2021/09/06 07:47:09;;;;;;;13.55;7.38;;;;;;;20.54;67.79;93816.41;5068626;28;20068;-76
2021/09/06 07:49:36;;;;;;;13.23;7.00;;;;;;;20.83;63.88;93821.97;5068372;28;20630;-76
2021/09/06 07:52:04;;;;;;;9.77;7.57;;;;;;;21.04;63.08;93821.22;5068341;28;20048;-76
2021/09/06 07:54:30;;;;;;;45.92;21.85;;;;;;;20.54;63.44;93812.00;5068237;28;20059;-76
2021/09/06 07:57:00;;;;;;;17.67;10.20;;;;;;;21.10;65.14;93812.34;5068387;28;20045;-75
2021/09/06 07:59:27;;;;;;;10.77;6.90;;;;;;;20.89;62.82;93812.34;5068550;28;20044;-76
2021/09/06 08:01:55;;;;;;;13.20;7.53;;;;;;;21.35;64.04;93811.56;5068319;28;20048;-76
2021/09/06 08:04:22;;;;;;;12.68;7.25;;;;;;;21.56;62.24;93787.25;5068224;28;20054;-76
2021/09/06 08:06:49;;;;;;;9.95;6.10;;;;;;;22.02;60.52;93812.53;5068196;28;20044;-76
2021/09/06 08:09:16;;;;;;;12.38;5.35;;;;;;;22.06;56.57;93804.91;5068341;28;20052;-75
2021/09/06 08:11:45;;;;;;;10.70;6.07;;;;;;;21.22;56.23;93812.91;5068254;28;20804;-76
2021/09/06 08:14:13;;;;;;;8.13;5.03;;;;;;;20.73;56.74;93795.06;5068527;28;20068;-75
2021/09/06 08:16:40;;;;;;;12.07;5.97;;;;;;;20.09;61.04;93813.41;5067965;28;20051;-76
2021/09/06 08:19:08;;;;;;;8.57;5.40;;;;;;;20.50;61.23;93813.53;5068477;28;20044;-76
2021/09/06 08:21:35;;;;;;;8.20;5.63;;;;;;;20.70;59.88;93812.03;5068340;28;20071;-76
2021/09/06 08:24:02;;;;;;;8.32;4.70;;;;;;;20.64;58.81;93803.38;5068054;28;20045;-77
2021/09/06 08:26:29;;;;;;;8.13;5.28;;;;;;;20.08;60.43;93781.31;5068312;28;20045;-76
2021/09/06 08:28:56;;;;;;;9.98;5.45;;;;;;;20.25;59.61;93794.16;5067932;28;20098;-76
2021/09/06 08:31:23;;;;;;;9.32;5.00;;;;;;;20.36;58.23;93802.03;5067589;28;20177;-75
2021/09/06 08:33:50;;;;;;;9.65;5.25;;;;;;;20.28;58.89;93801.47;5068119;28;20055;-76
2021/09/06 08:36:18;;;;;;;7.20;4.72;;;;;;;20.09;57.44;93808.94;5067840;28;20049;-76
2021/09/06 08:38:45;;;;;;;10.07;5.53;;;;;;;19.66;57.73;93810.81;5066362;28;20056;-77
2021/09/06 08:41:12;;;;;;;10.40;4.55;;;;;;;20.36;57.18;93805.41;5065964;28;20037;-75
2021/09/06 08:43:39;;;;;;;8.02;4.78;;;;;;;20.20;55.76;93806.38;5068876;28;20056;-76
2021/09/06 08:46:05;;;;;;;7.50;5.13;;;;;;;20.00;58.70;93807.88;5068530;28;20068;-76
2021/09/06 08:48:33;;;;;;;8.95;5.28;;;;;;;19.92;60.19;93777.84;5068393;28;20048;-75
2021/09/06 08:51:00;;;;;;;10.63;5.28;;;;;;;19.83;61.22;93790.56;5068551;28;20559;-75
2021/09/06 08:53:28;;;;;;;14.02;5.80;;;;;;;20.01;60.00;93810.22;5072131;28;20791;-76
2021/09/06 08:55:56;;;;;;;10.48;5.20;;;;;;;19.69;60.17;93785.03;5072007;28;20052;-76
2021/09/06 08:58:23;;;;;;;10.73;5.35;;;;;;;19.90;59.94;93795.53;5072004;28;20390;-76
2021/09/06 09:00:50;;;;;;;9.75;5.35;;;;;;;19.72;60.29;93812.41;5071480;28;20075;-76
2021/09/06 09:03:18;;;;;;;8.63;4.97;;;;;;;20.01;58.54;93812.06;5071977;28;20044;-76
2021/09/06 09:06:01;;;;;;;9.50;5.53;;;;;;;20.03;58.39;93808.16;5071700;28;20044;-76
2021/09/06 09:08:30;;;;;;;8.65;4.82;;;;;;;20.04;58.07;93806.31;5071599;28;20048;-76
2021/09/06 09:11:00;;;;;;;12.18;5.32;;;;;;;20.23;57.72;93814.47;5071708;28;20048;-76
2021/09/06 09:13:29;;;;;;;10.68;4.90;;;;;;;20.65;57.36;93814.63;5072045;28;20045;-76
2021/09/06 09:15:56;;;;;;;9.95;5.25;;;;;;;20.14;57.29;93788.09;5071623;28;20143;-75
2021/09/06 09:18:24;;;;;;;10.85;6.35;;;;;;;20.12;57.51;93816.28;5071659;28;20044;-76
2021/09/06 09:20:58;;;;;;;9.77;6.15;;;;;;;19.56;58.09;93809.69;5071868;28;20045;-75
2021/09/06 09:23:40;;;;;;;8.52;5.88;;;;;;;19.83;59.52;93800.19;5071750;28;20052;-76
2021/09/06 09:26:08;;;;;;;38.58;16.58;;;;;;;20.36;58.21;93815.84;5071688;28;20417;-75
2021/09/06 09:28:39;;;;;;;18.42;9.25;;;;;;;20.65;56.58;93814.63;5071295;28;20405;-75
2021/09/06 09:31:10;;;;;;;8.02;6.25;;;;;;;20.27;55.42;93815.56;5071191;28;20040;-76
2021/09/06 09:33:45;;;;;;;9.50;5.55;;;;;;;20.20;56.34;93806.38;5071138;28;20045;-76
2021/09/06 09:36:13;;;;;;;12.07;6.70;;;;;;;19.97;56.87;93803.97;5071437;28;20074;-75
2021/09/06 09:38:41;;;;;;;8.77;5.82;;;;;;;20.05;57.63;93804.50;5071021;28;20069;-76
2021/09/06 09:41:12;;;;;;;9.10;5.72;;;;;;;19.76;58.80;93801.22;5071351;28;20052;-75
2021/09/06 09:43:39;;;;;;;9.48;6.05;;;;;;;20.10;58.30;93807.13;5070905;28;20063;-75
2021/09/06 09:46:06;;;;;;;10.32;5.22;;;;;;;20.41;56.87;93809.88;5071039;28;20663;-75
2021/09/06 09:48:33;;;;;;;7.65;5.32;;;;;;;20.15;55.77;93801.94;5071261;28;20056;-75
2021/09/06 09:51:00;;;;;;;7.97;5.38;;;;;;;20.20;55.82;93804.56;5070819;28;20048;-76
2021/09/06 09:53:27;;;;;;;9.35;5.10;;;;;;;19.94;57.19;93803.66;5070884;28;20102;-75
2021/09/06 09:55:56;;;;;;;9.45;5.75;;;;;;;20.56;55.94;93811.75;5071121;28;20049;-76
2021/09/06 09:58:23;;;;;;;9.65;5.25;;;;;;;19.88;55.73;93806.25;5070521;28;20547;-76
2021/09/06 10:00:49;;;;;;;12.68;5.60;;;;;;;20.26;54.80;93806.16;5071037;28;20098;-76
2021/09/06 10:03:19;;;;;;;7.55;5.15;;;;;;;20.25;55.10;93803.81;5070788;28;20060;-76
2021/09/06 10:05:50;;;;;;;11.18;5.50;;;;;;;20.26;54.23;93802.75;5070676;28;20094;-76
2021/09/06 10:08:18;;;;;;;11.05;5.78;;;;;;;20.33;55.43;93789.47;5070754;28;20083;-76
2021/09/06 10:10:45;;;;;;;7.97;5.43;;;;;;;20.43;55.57;93792.88;5070451;28;20135;-76
2021/09/06 10:13:15;;;;;;;8.27;5.50;;;;;;;20.54;54.63;93777.25;5070805;28;20395;-76
2021/09/06 10:15:44;;;;;;;13.65;5.55;;;;;;;20.13;52.56;93783.13;5070664;28;20055;-76
2021/09/06 10:18:18;;;;;;;9.07;5.55;;;;;;;20.16;53.66;93799.09;5070673;28;20041;-76
2021/09/06 10:20:45;;;;;;;10.10;6.15;;;;;;;20.45;54.38;93797.84;5071963;28;20086;-76
2021/09/06 10:23:14;;;;;;;9.07;5.85;;;;;;;20.42;52.84;93799.16;5088709;28;20147;-76
2021/09/06 10:25:43;;;;;;;15.65;8.68;;;;;;;20.29;53.72;93810.09;5089727;28;20044;-76
2021/09/06 10:28:14;;;;;;;13.38;8.65;;;;;;;20.30;55.21;93780.34;5090275;28;20047;-77
2021/09/06 10:30:42;;;;;;;13.80;7.80;;;;;;;20.58;55.30;93795.78;5090395;28;20057;-76
2021/09/06 10:33:22;;;;;;;21.20;9.73;;;;;;;20.54;52.90;93803.38;5090398;28;20056;-76
2021/09/06 10:35:49;;;;;;;18.13;10.00;;;;;;;20.63;53.40;93807.03;5049849;28;20172;-76
2021/09/06 10:38:16;;;;;;;9.32;5.97;;;;;;;20.40;54.72;93800.44;5049776;28;20049;-76
2021/09/06 10:40:45;;;;;;;10.20;6.03;;;;;;;20.52;55.67;93798.41;5049671;28;20136;-76
2021/09/06 10:43:15;;;;;;;18.35;9.90;;;;;;;20.57;57.29;93800.25;5050000;28;20114;-76
2021/09/06 10:45:43;;;;;;;18.13;9.75;;;;;;;20.35;57.38;93805.66;5049805;28;20095;-76
2021/09/06 10:48:15;;;;;;;12.15;6.00;;;;;;;20.11;56.22;93796.47;5049784;28;20057;-76
2021/09/06 10:50:44;;;;;;;8.50;5.43;;;;;;;20.37;55.88;93806.19;5049707;28;20085;-76
2021/09/06 10:53:16;;;;;;;9.95;4.90;;;;;;;20.23;57.13;93809.25;5049590;28;20060;-76
2021/09/06 10:55:46;;;;;;;8.50;6.00;;;;;;;20.29;55.93;93810.09;5049297;28;20049;-76
2021/09/06 10:58:14;;;;;;;10.07;5.68;;;;;;;20.26;56.06;93797.53;5049663;28;20072;-76
2021/09/06 11:00:41;;;;;;;8.65;5.35;;;;;;;20.57;56.04;93797.63;5049553;28;20045;-76
2021/09/06 11:03:08;;;;;;;8.40;6.32;;;;;;;20.37;56.22;93785.31;5049618;28;20107;-76
2021/09/06 11:05:35;;;;;;;9.45;4.95;;;;;;;20.42;55.19;93793.94;5049607;28;20049;-76
2021/09/06 11:08:06;;;;;;;7.85;5.20;;;;;;;20.66;55.38;93790.88;5049383;28;20048;-76
2021/09/06 11:10:33;;;;;;;8.20;4.88;;;;;;;20.97;53.07;93784.94;5049171;28;20135;-76
2021/09/06 11:13:03;;;;;;;9.00;4.80;;;;;;;20.59;53.84;93745.19;5049294;28;20056;-75
2021/09/06 11:15:34;;;;;;;13.60;5.60;;;;;;;20.59;53.44;93758.25;5048879;28;20053;-76
2021/09/06 11:18:02;;;;;;;8.02;5.05;;;;;;;20.64;54.40;93761.63;5049289;28;20056;-76
2021/09/06 11:20:31;;;;;;;8.05;4.82;;;;;;;20.43;52.48;93766.03;5049114;28;20053;-77
2021/09/06 11:23:01;;;;;;;11.23;5.63;;;;;;;19.77;54.43;93748.03;5049698;28;20059;-76
2021/09/06 11:25:31;;;;;;;11.48;5.35;;;;;;;19.67;56.54;93761.00;5063793;28;20052;-76
2021/09/06 11:28:09;;;;;;;9.30;4.57;;;;;;;20.13;54.79;93777.94;5067329;28;20044;-76